sensor_id;sensor_type;location;lat;lon;timestamp;temperature;humidity
72338;DHT22;60294;64.134;-21.862;2022-12-16T00:01:22;-3270.30;57.50
72338;DHT22;60294;64.134;-21.862;2022-12-16T00:03:50;-3270.30;57.60
72338;DHT22;60294;64.134;-21.862;2022-12-16T00:06:16;-3270.20;56.70
72338;DHT22;60294;64.134;-21.862;2022-12-16T00:08:42;-3270.10;55.60
72338;DHT22;60294;64.134;-21.862;2022-12-16T00:11:09;-3270.10;55.40
72338;DHT22;60294;64.134;-21.862;2022-12-16T00:13:36;-3270.20;54.30
72338;DHT22;60294;64.134;-21.862;2022-12-16T00:16:11;-3270.10;54.80
72338;DHT22;60294;64.134;-21.862;2022-12-16T00:18:37;-3270.10;54.80
72338;DHT22;60294;64.134;-21.862;2022-12-16T00:21:04;-3270.00;55.20
72338;DHT22;60294;64.134;-21.862;2022-12-16T00:23:31;-3270.10;56.60
72338;DHT22;60294;64.134;-21.862;2022-12-16T00:25:59;-3270.10;58.00
72338;DHT22;60294;64.134;-21.862;2022-12-16T00:28:26;-3270.20;57.80
72338;DHT22;60294;64.134;-21.862;2022-12-16T00:30:53;-3270.00;56.00
72338;DHT22;60294;64.134;-21.862;2022-12-16T00:33:20;-3270.00;55.10
72338;DHT22;60294;64.134;-21.862;2022-12-16T00:35:49;-3270.00;54.20
72338;DHT22;60294;64.134;-21.862;2022-12-16T00:38:16;-3269.90;54.30
72338;DHT22;60294;64.134;-21.862;2022-12-16T00:40:42;-3269.70;54.80
72338;DHT22;60294;64.134;-21.862;2022-12-16T00:43:09;-3269.70;55.00
72338;DHT22;60294;64.134;-21.862;2022-12-16T00:45:35;-3269.60;55.00
72338;DHT22;60294;64.134;-21.862;2022-12-16T00:48:01;-3269.50;55.30
72338;DHT22;60294;64.134;-21.862;2022-12-16T00:50:26;-3269.50;56.30
72338;DHT22;60294;64.134;-21.862;2022-12-16T00:52:52;-3269.40;55.70
72338;DHT22;60294;64.134;-21.862;2022-12-16T00:55:19;-3269.40;55.30
72338;DHT22;60294;64.134;-21.862;2022-12-16T00:57:45;-3269.30;55.30
72338;DHT22;60294;64.134;-21.862;2022-12-16T01:00:13;-3269.20;55.90
72338;DHT22;60294;64.134;-21.862;2022-12-16T01:02:40;-3269.20;55.90
72338;DHT22;60294;64.134;-21.862;2022-12-16T01:05:07;-3269.20;56.40
72338;DHT22;60294;64.134;-21.862;2022-12-16T01:07:33;-3269.20;56.40
72338;DHT22;60294;64.134;-21.862;2022-12-16T01:09:59;-3269.30;57.20
72338;DHT22;60294;64.134;-21.862;2022-12-16T01:12:25;-3269.40;56.80
72338;DHT22;60294;64.134;-21.862;2022-12-16T01:14:51;-3269.30;56.40
72338;DHT22;60294;64.134;-21.862;2022-12-16T01:17:17;-3269.30;55.50
72338;DHT22;60294;64.134;-21.862;2022-12-16T01:19:43;-3269.30;55.10
72338;DHT22;60294;64.134;-21.862;2022-12-16T01:22:09;-3269.30;55.40
72338;DHT22;60294;64.134;-21.862;2022-12-16T01:24:35;-3269.30;55.10
72338;DHT22;60294;64.134;-21.862;2022-12-16T01:27:00;-3269.30;55.20
72338;DHT22;60294;64.134;-21.862;2022-12-16T01:29:26;-3269.30;55.20
72338;DHT22;60294;64.134;-21.862;2022-12-16T01:31:52;-3269.40;55.70
72338;DHT22;60294;64.134;-21.862;2022-12-16T01:34:18;-3269.50;55.30
72338;DHT22;60294;64.134;-21.862;2022-12-16T01:36:44;-3269.30;55.70
72338;DHT22;60294;64.134;-21.862;2022-12-16T01:39:10;-3269.40;55.80
72338;DHT22;60294;64.134;-21.862;2022-12-16T01:41:36;-3269.40;55.20
72338;DHT22;60294;64.134;-21.862;2022-12-16T01:46:44;-3269.70;57.60
72338;DHT22;60294;64.134;-21.862;2022-12-16T01:49:26;-3269.60;56.20
72338;DHT22;60294;64.134;-21.862;2022-12-16T01:51:56;-3269.40;54.80
72338;DHT22;60294;64.134;-21.862;2022-12-16T01:54:30;-3269.30;54.50
72338;DHT22;60294;64.134;-21.862;2022-12-16T01:57:01;-3269.30;54.10
72338;DHT22;60294;64.134;-21.862;2022-12-16T01:59:30;-3269.30;54.70
72338;DHT22;60294;64.134;-21.862;2022-12-16T02:01:59;-3269.20;54.60
72338;DHT22;60294;64.134;-21.862;2022-12-16T02:04:24;-3269.10;55.00
72338;DHT22;60294;64.134;-21.862;2022-12-16T02:06:50;-3269.00;55.20
72338;DHT22;60294;64.134;-21.862;2022-12-16T02:09:16;-3269.00;55.50
72338;DHT22;60294;64.134;-21.862;2022-12-16T02:28:27;-3268.80;56.30
72338;DHT22;60294;64.134;-21.862;2022-12-16T02:39:33;-3268.90;57.90
72338;DHT22;60294;64.134;-21.862;2022-12-16T02:42:18;-3269.00;60.30
72338;DHT22;60294;64.134;-21.862;2022-12-16T02:45:04;-3269.00;60.50
72338;DHT22;60294;64.134;-21.862;2022-12-16T02:47:32;-3268.90;60.10
72338;DHT22;60294;64.134;-21.862;2022-12-16T02:49:58;-3268.90;59.10
72338;DHT22;60294;64.134;-21.862;2022-12-16T02:52:28;-3268.80;59.00
72338;DHT22;60294;64.134;-21.862;2022-12-16T02:55:03;-3268.80;59.10
72338;DHT22;60294;64.134;-21.862;2022-12-16T03:00:21;-3268.60;58.20
72338;DHT22;60294;64.134;-21.862;2022-12-16T03:05:38;-3268.50;57.70
72338;DHT22;60294;64.134;-21.862;2022-12-16T03:08:09;-3268.50;58.00
72338;DHT22;60294;64.134;-21.862;2022-12-16T03:10:46;-3268.40;58.20
72338;DHT22;60294;64.134;-21.862;2022-12-16T03:13:16;-3268.40;58.50
72338;DHT22;60294;64.134;-21.862;2022-12-16T03:15:43;-3268.40;58.70
72338;DHT22;60294;64.134;-21.862;2022-12-16T03:18:11;-3268.40;58.90
72338;DHT22;60294;64.134;-21.862;2022-12-16T03:20:53;-3268.40;59.10
72338;DHT22;60294;64.134;-21.862;2022-12-16T03:26:16;-3268.40;59.30
72338;DHT22;60294;64.134;-21.862;2022-12-16T03:29:05;-3268.30;59.40
72338;DHT22;60294;64.134;-21.862;2022-12-16T03:31:58;-3268.30;59.40
72338;DHT22;60294;64.134;-21.862;2022-12-16T03:37:23;-3268.20;59.60
72338;DHT22;60294;64.134;-21.862;2022-12-16T03:39:54;-3268.20;59.50
72338;DHT22;60294;64.134;-21.862;2022-12-16T03:42:21;-3268.20;59.60
72338;DHT22;60294;64.134;-21.862;2022-12-16T03:44:48;-3268.20;59.70
72338;DHT22;60294;64.134;-21.862;2022-12-16T03:47:14;-3268.10;59.60
72338;DHT22;60294;64.134;-21.862;2022-12-16T03:49:41;-3268.10;59.70
72338;DHT22;60294;64.134;-21.862;2022-12-16T03:52:06;-3268.10;59.70
72338;DHT22;60294;64.134;-21.862;2022-12-16T03:54:32;-3268.10;60.00
72338;DHT22;60294;64.134;-21.862;2022-12-16T03:56:59;-3268.00;60.00
72338;DHT22;60294;64.134;-21.862;2022-12-16T03:59:24;-3268.00;60.10
72338;DHT22;60294;64.134;-21.862;2022-12-16T04:01:50;-3268.00;60.10
72338;DHT22;60294;64.134;-21.862;2022-12-16T04:04:17;-3268.00;60.10
72338;DHT22;60294;64.134;-21.862;2022-12-16T04:06:43;-3268.00;60.40
72338;DHT22;60294;64.134;-21.862;2022-12-16T04:09:08;-3267.90;60.60
72338;DHT22;60294;64.134;-21.862;2022-12-16T04:11:36;-3267.90;60.60
72338;DHT22;60294;64.134;-21.862;2022-12-16T04:14:20;-3267.80;60.70
72338;DHT22;60294;64.134;-21.862;2022-12-16T04:17:04;-3267.70;61.20
72338;DHT22;60294;64.134;-21.862;2022-12-16T04:19:49;-3267.70;61.20
72338;DHT22;60294;64.134;-21.862;2022-12-16T04:22:53;-3267.70;61.30
72338;DHT22;60294;64.134;-21.862;2022-12-16T04:25:38;-3267.70;60.80
72338;DHT22;60294;64.134;-21.862;2022-12-16T04:28:04;-3267.70;60.80
72338;DHT22;60294;64.134;-21.862;2022-12-16T04:30:31;-3267.70;61.10
72338;DHT22;60294;64.134;-21.862;2022-12-16T04:33:02;-3267.60;61.40
72338;DHT22;60294;64.134;-21.862;2022-12-16T04:35:48;-3267.70;61.10
72338;DHT22;60294;64.134;-21.862;2022-12-16T04:38:32;-3267.60;61.10
72338;DHT22;60294;64.134;-21.862;2022-12-16T04:41:30;-3267.60;61.10
72338;DHT22;60294;64.134;-21.862;2022-12-16T04:44:14;-3267.70;60.90
72338;DHT22;60294;64.134;-21.862;2022-12-16T04:46:58;-3267.70;60.90
72338;DHT22;60294;64.134;-21.862;2022-12-16T04:49:42;-3267.60;60.90
72338;DHT22;60294;64.134;-21.862;2022-12-16T04:52:34;-3267.60;61.10
72338;DHT22;60294;64.134;-21.862;2022-12-16T04:55:19;-3267.60;61.10
72338;DHT22;60294;64.134;-21.862;2022-12-16T04:58:03;-3267.60;61.00
72338;DHT22;60294;64.134;-21.862;2022-12-16T05:00:48;-3267.60;61.10
72338;DHT22;60294;64.134;-21.862;2022-12-16T05:03:33;-3267.60;61.20
72338;DHT22;60294;64.134;-21.862;2022-12-16T05:06:18;-3267.60;61.20
72338;DHT22;60294;64.134;-21.862;2022-12-16T05:09:03;-3267.60;61.10
72338;DHT22;60294;64.134;-21.862;2022-12-16T05:11:47;-3267.60;61.20
72338;DHT22;60294;64.134;-21.862;2022-12-16T05:14:32;-3267.50;61.30
72338;DHT22;60294;64.134;-21.862;2022-12-16T05:17:16;-3267.50;61.40
72338;DHT22;60294;64.134;-21.862;2022-12-16T05:20:00;-3267.50;61.30
72338;DHT22;60294;64.134;-21.862;2022-12-16T05:22:45;-3267.50;61.10
72338;DHT22;60294;64.134;-21.862;2022-12-16T05:25:29;-3267.50;61.10
72338;DHT22;60294;64.134;-21.862;2022-12-16T05:28:13;-3267.50;60.90
72338;DHT22;60294;64.134;-21.862;2022-12-16T05:30:57;-3267.40;61.30
72338;DHT22;60294;64.134;-21.862;2022-12-16T05:33:42;-3267.30;61.90
72338;DHT22;60294;64.134;-21.862;2022-12-16T05:36:26;-3267.20;62.30
72338;DHT22;60294;64.134;-21.862;2022-12-16T05:39:10;-3267.00;63.20
72338;DHT22;60294;64.134;-21.862;2022-12-16T05:41:55;-3267.00;63.10
72338;DHT22;60294;64.134;-21.862;2022-12-16T05:44:38;-3266.90;62.90
72338;DHT22;60294;64.134;-21.862;2022-12-16T05:47:23;-3266.80;62.90
72338;DHT22;60294;64.134;-21.862;2022-12-16T05:50:07;-3266.80;63.00
72338;DHT22;60294;64.134;-21.862;2022-12-16T05:52:54;-3266.80;63.30
72338;DHT22;60294;64.134;-21.862;2022-12-16T05:55:39;-3266.70;63.40
72338;DHT22;60294;64.134;-21.862;2022-12-16T05:58:24;-3266.70;63.20
72338;DHT22;60294;64.134;-21.862;2022-12-16T06:01:09;-3266.70;62.90
72338;DHT22;60294;64.134;-21.862;2022-12-16T06:03:53;-3266.70;62.90
72338;DHT22;60294;64.134;-21.862;2022-12-16T06:06:38;-3266.70;62.90
72338;DHT22;60294;64.134;-21.862;2022-12-16T06:09:22;-3266.70;62.80
72338;DHT22;60294;64.134;-21.862;2022-12-16T06:12:06;-3266.70;62.80
72338;DHT22;60294;64.134;-21.862;2022-12-16T06:14:51;-3266.80;62.40
72338;DHT22;60294;64.134;-21.862;2022-12-16T06:17:35;-3266.90;62.10
72338;DHT22;60294;64.134;-21.862;2022-12-16T06:20:19;-3266.90;61.80
72338;DHT22;60294;64.134;-21.862;2022-12-16T06:23:03;-3267.00;61.80
72338;DHT22;60294;64.134;-21.862;2022-12-16T06:25:47;-3267.00;61.60
72338;DHT22;60294;64.134;-21.862;2022-12-16T06:28:31;-3267.00;61.50
72338;DHT22;60294;64.134;-21.862;2022-12-16T06:31:16;-3267.00;61.40
72338;DHT22;60294;64.134;-21.862;2022-12-16T06:34:00;-3267.10;61.10
72338;DHT22;60294;64.134;-21.862;2022-12-16T06:36:45;-3267.10;61.00
72338;DHT22;60294;64.134;-21.862;2022-12-16T06:39:29;-3267.10;60.90
72338;DHT22;60294;64.134;-21.862;2022-12-16T06:42:13;-3267.00;60.70
72338;DHT22;60294;64.134;-21.862;2022-12-16T06:44:57;-3267.10;60.50
72338;DHT22;60294;64.134;-21.862;2022-12-16T06:47:42;-3267.10;60.60
72338;DHT22;60294;64.134;-21.862;2022-12-16T06:50:28;-3267.00;60.70
72338;DHT22;60294;64.134;-21.862;2022-12-16T06:53:12;-3267.00;60.70
72338;DHT22;60294;64.134;-21.862;2022-12-16T06:55:57;-3267.00;61.00
72338;DHT22;60294;64.134;-21.862;2022-12-16T06:58:41;-3267.00;60.90
72338;DHT22;60294;64.134;-21.862;2022-12-16T07:01:25;-3267.00;60.80
72338;DHT22;60294;64.134;-21.862;2022-12-16T07:04:09;-3267.00;60.70
72338;DHT22;60294;64.134;-21.862;2022-12-16T07:06:53;-3267.00;60.80
72338;DHT22;60294;64.134;-21.862;2022-12-16T07:09:37;-3267.00;60.60
72338;DHT22;60294;64.134;-21.862;2022-12-16T07:12:22;-3267.00;60.50
72338;DHT22;60294;64.134;-21.862;2022-12-16T07:15:06;-3267.00;60.60
72338;DHT22;60294;64.134;-21.862;2022-12-16T07:17:51;-3267.00;60.50
72338;DHT22;60294;64.134;-21.862;2022-12-16T07:20:35;-3267.10;60.60
72338;DHT22;60294;64.134;-21.862;2022-12-16T07:23:19;-3267.00;60.70
72338;DHT22;60294;64.134;-21.862;2022-12-16T07:26:03;-3267.10;60.70
72338;DHT22;60294;64.134;-21.862;2022-12-16T07:28:47;-3267.00;60.70
72338;DHT22;60294;64.134;-21.862;2022-12-16T07:31:32;-3267.10;60.70
72338;DHT22;60294;64.134;-21.862;2022-12-16T07:34:21;-3267.10;60.60
72338;DHT22;60294;64.134;-21.862;2022-12-16T07:37:06;-3267.10;60.50
72338;DHT22;60294;64.134;-21.862;2022-12-16T07:39:50;-3267.10;60.30
72338;DHT22;60294;64.134;-21.862;2022-12-16T07:42:34;-3267.20;60.30
72338;DHT22;60294;64.134;-21.862;2022-12-16T07:45:19;-3267.20;60.00
72338;DHT22;60294;64.134;-21.862;2022-12-16T07:48:03;-3267.10;59.90
72338;DHT22;60294;64.134;-21.862;2022-12-16T07:50:48;-3267.10;59.90
72338;DHT22;60294;64.134;-21.862;2022-12-16T07:53:32;-3267.10;60.10
72338;DHT22;60294;64.134;-21.862;2022-12-16T07:56:19;-3267.00;60.20
72338;DHT22;60294;64.134;-21.862;2022-12-16T07:59:04;-3267.00;60.30
72338;DHT22;60294;64.134;-21.862;2022-12-16T08:01:48;-3267.00;60.50
72338;DHT22;60294;64.134;-21.862;2022-12-16T08:04:32;-3267.00;60.90
72338;DHT22;60294;64.134;-21.862;2022-12-16T08:07:17;-3267.00;61.00
72338;DHT22;60294;64.134;-21.862;2022-12-16T08:10:01;-3267.00;61.10
72338;DHT22;60294;64.134;-21.862;2022-12-16T08:12:45;-3266.90;61.40
72338;DHT22;60294;64.134;-21.862;2022-12-16T08:15:30;-3266.90;61.40
72338;DHT22;60294;64.134;-21.862;2022-12-16T08:18:14;-3266.90;61.30
72338;DHT22;60294;64.134;-21.862;2022-12-16T08:20:58;-3266.90;61.40
72338;DHT22;60294;64.134;-21.862;2022-12-16T08:23:42;-3267.00;61.50
72338;DHT22;60294;64.134;-21.862;2022-12-16T08:26:28;-3267.00;61.40
72338;DHT22;60294;64.134;-21.862;2022-12-16T08:29:12;-3267.00;61.30
72338;DHT22;60294;64.134;-21.862;2022-12-16T08:31:58;-3266.90;61.10
72338;DHT22;60294;64.134;-21.862;2022-12-16T08:34:42;-3267.00;61.00
72338;DHT22;60294;64.134;-21.862;2022-12-16T08:37:26;-3266.90;60.80
72338;DHT22;60294;64.134;-21.862;2022-12-16T08:40:10;-3266.90;60.70
72338;DHT22;60294;64.134;-21.862;2022-12-16T08:42:56;-3266.90;61.00
72338;DHT22;60294;64.134;-21.862;2022-12-16T08:45:41;-3266.90;61.30
72338;DHT22;60294;64.134;-21.862;2022-12-16T08:48:26;-3266.70;61.40
72338;DHT22;60294;64.134;-21.862;2022-12-16T08:51:10;-3266.70;61.70
72338;DHT22;60294;64.134;-21.862;2022-12-16T08:53:54;-3266.70;61.70
72338;DHT22;60294;64.134;-21.862;2022-12-16T08:56:38;-3266.60;61.10
72338;DHT22;60294;64.134;-21.862;2022-12-16T08:59:23;-3266.70;61.20
72338;DHT22;60294;64.134;-21.862;2022-12-16T09:02:09;-3266.80;60.90
72338;DHT22;60294;64.134;-21.862;2022-12-16T09:04:53;-3266.80;61.20
72338;DHT22;60294;64.134;-21.862;2022-12-16T09:07:39;-3266.70;61.10
72338;DHT22;60294;64.134;-21.862;2022-12-16T09:10:23;-3266.80;61.40
72338;DHT22;60294;64.134;-21.862;2022-12-16T09:13:12;-3266.80;61.40
72338;DHT22;60294;64.134;-21.862;2022-12-16T09:15:56;-3266.80;61.30
72338;DHT22;60294;64.134;-21.862;2022-12-16T09:18:40;-3266.90;61.10
72338;DHT22;60294;64.134;-21.862;2022-12-16T09:21:25;-3266.90;60.70
72338;DHT22;60294;64.134;-21.862;2022-12-16T09:24:09;-3266.90;60.80
72338;DHT22;60294;64.134;-21.862;2022-12-16T09:26:53;-3266.90;60.70
72338;DHT22;60294;64.134;-21.862;2022-12-16T09:29:37;-3266.80;60.70
72338;DHT22;60294;64.134;-21.862;2022-12-16T09:32:22;-3266.90;60.50
72338;DHT22;60294;64.134;-21.862;2022-12-16T09:35:06;-3266.90;60.40
72338;DHT22;60294;64.134;-21.862;2022-12-16T09:37:51;-3266.90;60.50
72338;DHT22;60294;64.134;-21.862;2022-12-16T09:40:37;-3266.90;60.40
72338;DHT22;60294;64.134;-21.862;2022-12-16T09:43:51;-3267.00;60.10
72338;DHT22;60294;64.134;-21.862;2022-12-16T09:46:57;-3266.90;59.90
72338;DHT22;60294;64.134;-21.862;2022-12-16T09:49:46;-3266.90;59.90
72338;DHT22;60294;64.134;-21.862;2022-12-16T09:52:35;-3266.80;60.50
72338;DHT22;60294;64.134;-21.862;2022-12-16T09:55:48;-3266.80;60.30
72338;DHT22;60294;64.134;-21.862;2022-12-16T09:58:40;-3266.90;60.20
72338;DHT22;60294;64.134;-21.862;2022-12-16T10:01:26;-3266.90;60.30
72338;DHT22;60294;64.134;-21.862;2022-12-16T10:04:13;-3266.90;60.10
72338;DHT22;60294;64.134;-21.862;2022-12-16T10:06:59;-3267.00;60.00
72338;DHT22;60294;64.134;-21.862;2022-12-16T10:13:04;-3267.00;60.00
72338;DHT22;60294;64.134;-21.862;2022-12-16T10:22:03;-3267.10;59.90
72338;DHT22;60294;64.134;-21.862;2022-12-16T10:25:04;-3267.10;60.10
72338;DHT22;60294;64.134;-21.862;2022-12-16T10:27:49;-3267.10;60.20
72338;DHT22;60294;64.134;-21.862;2022-12-16T10:30:37;-3267.20;60.20
72338;DHT22;60294;64.134;-21.862;2022-12-16T10:33:25;-3267.10;60.20
72338;DHT22;60294;64.134;-21.862;2022-12-16T10:36:20;-3267.10;60.30
72338;DHT22;60294;64.134;-21.862;2022-12-16T10:39:37;-3267.20;60.40
72338;DHT22;60294;64.134;-21.862;2022-12-16T10:42:39;-3267.20;60.20
72338;DHT22;60294;64.134;-21.862;2022-12-16T10:45:30;-3267.20;60.20
72338;DHT22;60294;64.134;-21.862;2022-12-16T10:48:19;-3267.20;60.10
72338;DHT22;60294;64.134;-21.862;2022-12-16T10:51:13;-3267.20;60.10
72338;DHT22;60294;64.134;-21.862;2022-12-16T10:54:50;-3267.20;60.30
72338;DHT22;60294;64.134;-21.862;2022-12-16T11:00:57;-3267.30;60.40
72338;DHT22;60294;64.134;-21.862;2022-12-16T11:03:42;-3267.20;60.60
72338;DHT22;60294;64.134;-21.862;2022-12-16T11:06:34;-3267.20;60.90
72338;DHT22;60294;64.134;-21.862;2022-12-16T11:09:30;-3267.20;61.00
72338;DHT22;60294;64.134;-21.862;2022-12-16T11:15:29;-3267.20;61.00
72338;DHT22;60294;64.134;-21.862;2022-12-16T11:18:18;-3267.20;60.80
72338;DHT22;60294;64.134;-21.862;2022-12-16T11:21:14;-3267.20;60.70
72338;DHT22;60294;64.134;-21.862;2022-12-16T11:24:16;-3267.30;60.40
72338;DHT22;60294;64.134;-21.862;2022-12-16T11:27:04;-3267.30;60.00
72338;DHT22;60294;64.134;-21.862;2022-12-16T11:29:58;-3267.40;59.90
72338;DHT22;60294;64.134;-21.862;2022-12-16T11:32:50;-3267.50;59.50
72338;DHT22;60294;64.134;-21.862;2022-12-16T11:35:39;-3267.50;59.50
72338;DHT22;60294;64.134;-21.862;2022-12-16T11:38:44;-3267.50;59.80
72338;DHT22;60294;64.134;-21.862;2022-12-16T11:41:46;-3267.60;60.40
72338;DHT22;60294;64.134;-21.862;2022-12-16T11:44:50;-3267.60;60.70
72338;DHT22;60294;64.134;-21.862;2022-12-16T11:47:54;-3267.70;60.70
72338;DHT22;60294;64.134;-21.862;2022-12-16T11:50:47;-3267.70;61.20
72338;DHT22;60294;64.134;-21.862;2022-12-16T11:54:35;-3267.70;61.20
72338;DHT22;60294;64.134;-21.862;2022-12-16T11:56:55;-3267.80;61.80
72338;DHT22;60294;64.134;-21.862;2022-12-16T11:59:58;-3267.80;61.50
72338;DHT22;60294;64.134;-21.862;2022-12-16T12:03:08;-3267.90;61.80
72338;DHT22;60294;64.134;-21.862;2022-12-16T12:09:09;-3267.90;61.60
72338;DHT22;60294;64.134;-21.862;2022-12-16T12:15:17;-3267.90;61.70
72338;DHT22;60294;64.134;-21.862;2022-12-16T12:21:27;-3267.90;61.50
72338;DHT22;60294;64.134;-21.862;2022-12-16T12:30:36;-3267.80;61.50
72338;DHT22;60294;64.134;-21.862;2022-12-16T12:33:50;-3267.90;61.70
72338;DHT22;60294;64.134;-21.862;2022-12-16T12:37:25;-3267.90;61.30
72338;DHT22;60294;64.134;-21.862;2022-12-16T12:46:56;-3268.00;61.10
72338;DHT22;60294;64.134;-21.862;2022-12-16T12:49:36;-3268.00;61.40
72338;DHT22;60294;64.134;-21.862;2022-12-16T12:58:26;-3268.20;60.80
72338;DHT22;60294;64.134;-21.862;2022-12-16T13:01:14;-3268.30;60.80
72338;DHT22;60294;64.134;-21.862;2022-12-16T13:04:08;-3268.30;60.50
72338;DHT22;60294;64.134;-21.862;2022-12-16T13:06:54;-3268.30;59.80
72338;DHT22;60294;64.134;-21.862;2022-12-16T13:09:39;-3268.30;59.40
72338;DHT22;60294;64.134;-21.862;2022-12-16T13:12:32;-3268.40;59.70
72338;DHT22;60294;64.134;-21.862;2022-12-16T13:20:51;-3268.40;59.40
72338;DHT22;60294;64.134;-21.862;2022-12-16T13:23:41;-3268.30;59.90
72338;DHT22;60294;64.134;-21.862;2022-12-16T13:26:28;-3268.20;60.70
72338;DHT22;60294;64.134;-21.862;2022-12-16T13:29:26;-3268.20;61.00
72338;DHT22;60294;64.134;-21.862;2022-12-16T13:37:56;-3268.10;59.90
72338;DHT22;60294;64.134;-21.862;2022-12-16T13:43:54;-3268.20;59.70
72338;DHT22;60294;64.134;-21.862;2022-12-16T13:46:46;-3268.10;60.50
72338;DHT22;60294;64.134;-21.862;2022-12-16T13:55:18;-3268.20;60.90
72338;DHT22;60294;64.134;-21.862;2022-12-16T13:58:19;-3268.20;60.80
72338;DHT22;60294;64.134;-21.862;2022-12-16T14:01:10;-3268.20;60.80
72338;DHT22;60294;64.134;-21.862;2022-12-16T14:03:56;-3268.20;60.10
72338;DHT22;60294;64.134;-21.862;2022-12-16T14:06:45;-3268.20;59.20
72338;DHT22;60294;64.134;-21.862;2022-12-16T14:09:36;-3268.30;59.50
72338;DHT22;60294;64.134;-21.862;2022-12-16T14:15:30;-3268.30;60.30
72338;DHT22;60294;64.134;-21.862;2022-12-16T14:18:35;-3268.30;60.30
72338;DHT22;60294;64.134;-21.862;2022-12-16T14:21:41;-3268.20;60.10
72338;DHT22;60294;64.134;-21.862;2022-12-16T14:24:29;-3268.20;59.90
72338;DHT22;60294;64.134;-21.862;2022-12-16T14:27:19;-3268.30;59.70
72338;DHT22;60294;64.134;-21.862;2022-12-16T14:30:22;-3268.40;59.50
72338;DHT22;60294;64.134;-21.862;2022-12-16T14:33:24;-3268.40;58.50
72338;DHT22;60294;64.134;-21.862;2022-12-16T14:36:20;-3268.40;58.50
72338;DHT22;60294;64.134;-21.862;2022-12-16T14:39:27;-3268.40;58.80
72338;DHT22;60294;64.134;-21.862;2022-12-16T14:42:23;-3268.20;59.20
72338;DHT22;60294;64.134;-21.862;2022-12-16T14:45:32;-3268.30;59.00
72338;DHT22;60294;64.134;-21.862;2022-12-16T14:48:36;-3268.20;58.60
72338;DHT22;60294;64.134;-21.862;2022-12-16T14:51:37;-3268.20;57.70
72338;DHT22;60294;64.134;-21.862;2022-12-16T14:57:22;-3268.20;57.60
72338;DHT22;60294;64.134;-21.862;2022-12-16T15:02:52;-3268.30;57.90
72338;DHT22;60294;64.134;-21.862;2022-12-16T15:05:58;-3268.30;58.10
72338;DHT22;60294;64.134;-21.862;2022-12-16T15:08:50;-3268.30;58.00
72338;DHT22;60294;64.134;-21.862;2022-12-16T15:11:36;-3268.30;58.10
72338;DHT22;60294;64.134;-21.862;2022-12-16T15:14:25;-3268.40;57.50
72338;DHT22;60294;64.134;-21.862;2022-12-16T15:17:24;-3268.40;57.40
72338;DHT22;60294;64.134;-21.862;2022-12-16T15:20:26;-3268.40;56.70
72338;DHT22;60294;64.134;-21.862;2022-12-16T15:23:18;-3268.50;56.80
72338;DHT22;60294;64.134;-21.862;2022-12-16T15:26:05;-3268.50;57.20
72338;DHT22;60294;64.134;-21.862;2022-12-16T15:28:49;-3268.50;57.50
72338;DHT22;60294;64.134;-21.862;2022-12-16T15:31:39;-3268.50;56.30
72338;DHT22;60294;64.134;-21.862;2022-12-16T15:34:45;-3268.50;56.00
72338;DHT22;60294;64.134;-21.862;2022-12-16T15:37:37;-3268.60;54.30
72338;DHT22;60294;64.134;-21.862;2022-12-16T15:40:23;-3268.70;53.50
72338;DHT22;60294;64.134;-21.862;2022-12-16T15:46:19;-3268.80;53.20
72338;DHT22;60294;64.134;-21.862;2022-12-16T15:49:04;-3268.80;53.10
72338;DHT22;60294;64.134;-21.862;2022-12-16T15:51:57;-3268.90;53.20
72338;DHT22;60294;64.134;-21.862;2022-12-16T15:54:52;-3268.90;51.50
72338;DHT22;60294;64.134;-21.862;2022-12-16T15:57:38;-3268.90;50.90
72338;DHT22;60294;64.134;-21.862;2022-12-16T16:00:25;-3269.00;51.30
72338;DHT22;60294;64.134;-21.862;2022-12-16T16:06:21;-3269.00;53.00
72338;DHT22;60294;64.134;-21.862;2022-12-16T16:09:28;-3269.00;53.80
72338;DHT22;60294;64.134;-21.862;2022-12-16T16:12:16;-3269.10;54.10
72338;DHT22;60294;64.134;-21.862;2022-12-16T16:15:05;-3269.00;53.90
72338;DHT22;60294;64.134;-21.862;2022-12-16T16:17:54;-3269.10;54.00
72338;DHT22;60294;64.134;-21.862;2022-12-16T16:20:39;-3269.10;54.60
72338;DHT22;60294;64.134;-21.862;2022-12-16T16:23:23;-3269.10;54.40
72338;DHT22;60294;64.134;-21.862;2022-12-16T16:26:10;-3269.20;54.50
72338;DHT22;60294;64.134;-21.862;2022-12-16T16:28:55;-3269.20;54.30
72338;DHT22;60294;64.134;-21.862;2022-12-16T16:31:39;-3269.20;54.30
72338;DHT22;60294;64.134;-21.862;2022-12-16T16:34:23;-3269.30;54.20
72338;DHT22;60294;64.134;-21.862;2022-12-16T16:37:15;-3269.40;54.40
72338;DHT22;60294;64.134;-21.862;2022-12-16T16:40:00;-3269.40;54.40
72338;DHT22;60294;64.134;-21.862;2022-12-16T16:42:45;-3269.40;54.30
72338;DHT22;60294;64.134;-21.862;2022-12-16T16:45:43;-3269.40;54.20
72338;DHT22;60294;64.134;-21.862;2022-12-16T16:48:27;-3269.50;54.20
72338;DHT22;60294;64.134;-21.862;2022-12-16T16:51:12;-3269.50;54.50
72338;DHT22;60294;64.134;-21.862;2022-12-16T16:53:56;-3269.50;53.90
72338;DHT22;60294;64.134;-21.862;2022-12-16T16:56:40;-3269.50;53.90
72338;DHT22;60294;64.134;-21.862;2022-12-16T16:59:24;-3269.50;54.30
72338;DHT22;60294;64.134;-21.862;2022-12-16T17:02:20;-3269.60;54.50
72338;DHT22;60294;64.134;-21.862;2022-12-16T17:05:05;-3269.50;54.20
72338;DHT22;60294;64.134;-21.862;2022-12-16T17:07:50;-3269.50;54.50
72338;DHT22;60294;64.134;-21.862;2022-12-16T17:10:34;-3269.60;55.00
72338;DHT22;60294;64.134;-21.862;2022-12-16T17:13:18;-3269.60;54.90
72338;DHT22;60294;64.134;-21.862;2022-12-16T17:16:10;-3269.60;55.30
72338;DHT22;60294;64.134;-21.862;2022-12-16T17:18:55;-3269.60;55.70
72338;DHT22;60294;64.134;-21.862;2022-12-16T17:21:39;-3269.60;55.50
72338;DHT22;60294;64.134;-21.862;2022-12-16T17:24:24;-3269.60;55.70
72338;DHT22;60294;64.134;-21.862;2022-12-16T17:30:00;-3269.70;54.60
72338;DHT22;60294;64.134;-21.862;2022-12-16T17:32:44;-3269.70;54.10
72338;DHT22;60294;64.134;-21.862;2022-12-16T17:35:29;-3269.80;53.00
72338;DHT22;60294;64.134;-21.862;2022-12-16T17:38:13;-3269.80;53.20
72338;DHT22;60294;64.134;-21.862;2022-12-16T17:40:57;-3269.80;53.50
72338;DHT22;60294;64.134;-21.862;2022-12-16T17:43:42;-3269.80;53.40
72338;DHT22;60294;64.134;-21.862;2022-12-16T17:46:26;-3269.80;54.10
72338;DHT22;60294;64.134;-21.862;2022-12-16T17:49:11;-3269.70;54.50
72338;DHT22;60294;64.134;-21.862;2022-12-16T17:51:55;-3269.70;55.10
72338;DHT22;60294;64.134;-21.862;2022-12-16T17:54:40;-3269.70;55.60
72338;DHT22;60294;64.134;-21.862;2022-12-16T17:57:24;-3269.70;55.80
72338;DHT22;60294;64.134;-21.862;2022-12-16T18:00:09;-3269.80;55.90